EDDS Airport Information

Runway Information
Runway 07 Length 10974 ft width 148 ft Elevation 1267 ft Threshold 984 ft Heading 72
Runway 25 Length 10974 ft Width 148 ft Elevation 1181 ft Threshold N/A Heading 252
Airport Frequencies
Type ATIS Name ATIS Frequency 126.125 MHZ
Type CLD Name CLNC DEL Frequency 121.9 MHZ
Type DIR Name DIR Frequency 119.85 MHZ
Type GND Name GND Frequency 118.6 MHZ
Type INFO Name LANGEN INF Frequency 128.95 MHZ
Type MISC Name DEICING Frequency 136.825 MHZ
Type PTD Name BASE OPS P Frequency 31.8 MHZ
Type RDR Name LANGEN RAD Frequency 119.2 MHZ
Type RMP Name APRON Frequency 121.7 MHZ
Type TWR Name TWR Frequency 118.8 MHZ
Airport Navaids
Type VOR-DME Name Luburg Frequency 109200 KHZ
Type NDB Name Stuttgart Frequency 306 KHZ
Type DME Name Stuttgart Frequency 115450 KHZ
Type NDB Name Stuttgart Frequency 384 KHZ
Airport Weather Information & NOTAM
ADDS - METARS form results

(0843 UTC 20 March 2023)
Data provider http://aviationweather.gov/metar/data/
 
METAR text: EDDS 200820Z AUTO 22004KT 160V270 9999 FEW017 OVC045 10/06 Q1020 NOSIG
Conditions at: EDDS (STUTTGART/ECHTER, DE) observed 0820 UTC 20 March 2023
Temperature: 10.0°C (50°F)
Dewpoint: 6.0°C (43°F) [RH = 76%]
Pressure (altimeter): 30.12 inches Hg (1020.0 mb)
Winds: from the SW (220 degrees) at 5 MPH (4 knots; 2.1 m/s)
Visibility: 6 or more miles (10+ km)
Ceiling: 4500 feet AGL
Clouds: few clouds at 1700 feet AGL
overcast cloud deck at 4500 feet AGL
Weather: no significant weather observed at this time

METAR text: EDDS 200750Z AUTO 24003KT 150V280 9999 BKN039 BKN046 09/06 Q1020
Conditions at: EDDS (STUTTGART/ECHTER, DE) observed 0750 UTC 20 March 2023
Temperature: 9.0°C (48°F)
Dewpoint: 6.0°C (43°F) [RH = 81%]
Pressure (altimeter): 30.12 inches Hg (1020.0 mb)
Winds: from the WSW (240 degrees) at 3 MPH (3 knots; 1.5 m/s)
Visibility: 6 or more miles (10+ km)
Ceiling: 3900 feet AGL
Clouds: broken clouds at 3900 feet AGL
broken clouds at 4600 feet AGL
Weather: no significant weather observed at this time

Forecast for: EDDS (STUTTGART/ECHTER, DE)
Text: TAF EDDS 200500Z 2006/2106 24004KT 9999 BKN040
Forecast period: 0600 UTC 20 March 2023 to 0600 UTC 21 March 2023
Forecast type: FROM: standard forecast or significant change
Winds: from the WSW (240 degrees) at 5 MPH (4 knots; 2.1 m/s)
Visibility: 6 or more miles (10+ km)
Ceiling: 4000 feet AGL
Clouds: broken clouds at 4000 feet AGL
Weather: no significant weather forecast for this period